Time;durP1;ratioP1;P1;durP2;ratioP2;P2;SDS_P1;SDS_P2;PMS_P1;PMS_P2;Temp;Humidity;BMP_temperature;BMP_pressure;BME280_temperature;BME280_humidity;BME280_pressure;Samples;Min_cycle;Max_cycle;Signal;HPM_P1;HPM_P2
2022/05/15 00:02:01;;;;;;;;;36.50;31.50;;;;;18.54;44.10;100869.34;4958223;28;45192;-74
2022/05/15 00:04:26;;;;;;;;;13.75;12.50;;;;;18.40;44.23;100841.03;4960178;28;45433;-74
2022/05/15 00:06:51;;;;;;;;;9.00;9.00;;;;;18.46;43.95;100853.94;4958092;28;45352;-74
2022/05/15 00:09:17;;;;;;;;;6.25;6.25;;;;;18.42;44.10;100836.44;4957504;28;45224;-74
2022/05/15 00:11:43;;;;;;;;;7.00;5.00;;;;;18.47;44.16;100839.66;4958325;28;45725;-74
2022/05/15 00:14:09;;;;;;;;;5.50;5.50;;;;;18.46;43.97;100835.28;4941709;28;45556;-74
2022/05/15 00:16:35;;;;;;;;;5.75;5.75;;;;;18.44;44.18;100833.66;4959766;28;46375;-74
2022/05/15 00:19:00;;;;;;;;;5.50;5.00;;;;;18.35;44.16;100832.50;4956999;28;45339;-74
2022/05/15 00:21:26;;;;;;;;;6.00;6.00;;;;;18.39;44.16;100837.50;4957757;28;45336;-74
2022/05/15 00:23:51;;;;;;;;;4.25;4.25;;;;;18.35;44.36;100821.84;4940765;28;45278;-74
2022/05/15 00:26:17;;;;;;;;;6.75;6.00;;;;;18.36;44.50;100828.88;4957547;28;45369;-73
2022/05/15 00:28:42;;;;;;;;;7.75;6.50;;;;;18.34;44.12;100822.81;4958116;28;45490;-73
2022/05/15 00:31:08;;;;;;;;;11.50;10.25;;;;;18.35;44.12;100832.50;4939628;28;45401;-74
2022/05/15 00:33:34;;;;;;;;;5.50;5.50;;;;;18.28;44.51;100816.09;4957924;28;45496;-75
2022/05/15 00:35:59;;;;;;;;;15.25;14.50;;;;;18.31;44.60;100831.03;4957350;28;46381;-74
2022/05/15 00:38:25;;;;;;;;;5.00;4.25;;;;;18.21;44.35;100810.34;4958247;28;45260;-74
2022/05/15 00:40:52;;;;;;;;;5.00;5.00;;;;;18.25;44.87;100819.84;4940489;28;45249;-75
2022/05/15 00:43:47;;;;;;;;;5.75;5.75;;;;;18.24;44.62;100820.78;4960297;28;45343;-75
2022/05/15 00:46:20;;;;;;;;;8.00;5.00;;;;;18.15;44.81;100808.13;4958318;28;45405;-75
2022/05/15 00:48:46;;;;;;;;;7.00;6.00;;;;;18.21;44.93;100823.66;4957096;28;45207;-74
2022/05/15 00:51:32;;;;;;;;;7.50;6.00;;;;;18.20;45.04;100821.09;4956890;28;45374;-75
2022/05/15 00:54:05;;;;;;;;;5.25;5.25;;;;;18.15;45.04;100817.91;4956596;28;45608;-75
2022/05/15 00:56:36;;;;;;;;;7.25;7.25;;;;;18.16;45.00;100807.16;4956318;28;46128;-73
2022/05/15 00:59:08;;;;;;;;;7.25;6.00;;;;;18.14;45.41;100806.41;4956207;28;45356;-74
2022/05/15 01:01:33;;;;;;;;;6.25;5.00;;;;;18.08;45.65;100797.03;4956993;28;45368;-75
2022/05/15 01:04:00;;;;;;;;;7.50;6.00;;;;;18.09;45.90;100800.56;4957858;28;45657;-74
2022/05/15 01:06:26;;;;;;;;;8.00;6.50;;;;;18.06;45.72;100795.44;4957809;28;45520;-74
2022/05/15 01:08:52;;;;;;;;;5.00;4.25;;;;;18.06;45.76;100792.78;4956931;28;45342;-74
2022/05/15 01:11:19;;;;;;;;;7.75;6.00;;;;;18.02;45.90;100793.91;4958149;28;45230;-74
2022/05/15 01:13:48;;;;;;;;;3.25;2.50;;;;;18.00;45.77;100791.38;4958020;28;45432;-73
2022/05/15 01:16:19;;;;;;;;;5.00;5.00;;;;;18.01;45.94;100797.53;4956754;28;46147;-75
2022/05/15 01:18:47;;;;;;;;;5.75;5.75;;;;;17.99;46.07;100784.31;4940594;28;45273;-74
2022/05/15 01:21:18;;;;;;;;;9.50;7.75;;;;;18.00;45.95;100790.47;4956584;28;45223;-74
2022/05/15 01:23:43;;;;;;;;;5.00;5.00;;;;;18.01;46.23;100784.22;4956072;28;45452;-74
2022/05/15 01:26:09;;;;;;;;;6.25;6.00;;;;;17.94;45.91;100776.63;4960515;28;47301;-74
2022/05/15 01:28:34;;;;;;;;;5.00;5.00;;;;;17.98;46.01;100785.28;4955548;28;45239;-73
2022/05/15 01:31:00;;;;;;;;;7.00;5.25;;;;;17.91;46.00;100773.34;4956164;28;45335;-74
2022/05/15 01:33:25;;;;;;;;;5.50;4.75;;;;;17.98;45.88;100779.94;4958187;28;45349;-74
2022/05/15 01:35:51;;;;;;;;;6.00;4.00;;;;;17.91;46.00;100776.00;4957103;28;45320;-73
2022/05/15 01:38:18;;;;;;;;;4.00;4.00;;;;;17.98;45.99;100789.72;4955766;28;45205;-75
2022/05/15 01:40:44;;;;;;;;;4.00;4.00;;;;;17.89;46.17;100770.78;4955907;28;45378;-73
2022/05/15 01:43:10;;;;;;;;;5.50;4.00;;;;;17.94;46.02;100775.78;4956264;28;45373;-73
2022/05/15 01:45:35;;;;;;;;;6.00;4.75;;;;;17.96;45.93;100777.38;4957660;28;45891;-73
2022/05/15 01:48:01;;;;;;;;;8.75;3.25;;;;;17.94;46.18;100768.66;4957762;28;45456;-73
2022/05/15 01:50:27;;;;;;;;;7.75;6.00;;;;;17.94;45.93;100773.97;4956488;28;45314;-74
2022/05/15 01:52:52;;;;;;;;;8.50;6.00;;;;;17.92;46.23;100761.75;4956824;28;45498;-73
2022/05/15 01:55:18;;;;;;;;;6.50;6.50;;;;;17.94;46.16;100771.31;4958020;28;46092;-74
2022/05/15 01:57:43;;;;;;;;;5.00;4.00;;;;;17.89;46.31;100757.47;4954873;28;45185;-74
2022/05/15 02:00:13;;;;;;;;;7.25;4.25;;;;;17.88;46.68;100758.41;4956823;28;45272;-73
2022/05/15 02:02:40;;;;;;;;;5.00;5.00;;;;;17.90;46.43;100761.84;4958272;28;45566;-74
2022/05/15 02:05:07;;;;;;;;;5.75;4.75;;;;;17.96;46.36;100764.06;4965213;28;45305;-73
2022/05/15 02:07:33;;;;;;;;;4.75;4.75;;;;;17.93;46.24;100750.97;4963443;28;45369;-74
2022/05/15 02:09:58;;;;;;;;;4.50;4.50;;;;;17.94;46.43;100752.69;4962428;28;45336;-74
2022/05/15 02:12:23;;;;;;;;;7.25;4.00;;;;;17.94;46.49;100755.34;4962122;28;45482;-73
2022/05/15 02:14:49;;;;;;;;;6.00;5.00;;;;;17.96;46.40;100744.59;4961687;28;46099;-73
2022/05/15 02:17:14;;;;;;;;;4.25;4.25;;;;;17.93;46.33;100735.00;4961552;28;45344;-74
2022/05/15 02:19:40;;;;;;;;;5.25;5.00;;;;;17.97;46.05;100740.97;4961990;28;45363;-73
2022/05/15 02:22:05;;;;;;;;;5.75;5.00;;;;;17.91;46.04;100725.44;4962206;28;45626;-75
2022/05/15 02:24:31;;;;;;;;;5.25;4.00;;;;;17.97;46.02;100730.34;4961695;28;46983;-74
2022/05/15 02:26:57;;;;;;;;;4.00;4.00;;;;;17.78;45.99;100698.81;4962785;28;45390;-74
2022/05/15 02:29:22;;;;;;;;;6.00;4.25;;;;;17.99;46.11;100727.56;4964387;28;45409;-73
2022/05/15 02:31:47;;;;;;;;;3.25;3.25;;;;;17.77;45.84;100683.81;4962504;28;45200;-73
2022/05/15 02:34:13;;;;;;;;;7.00;4.00;;;;;17.91;46.11;100715.63;4962029;28;46230;-75
2022/05/15 02:36:38;;;;;;;;;5.50;5.50;;;;;17.96;46.07;100718.00;4962569;28;45410;-73
2022/05/15 02:39:04;;;;;;;;;7.00;7.00;;;;;17.94;45.84;100722.56;4963786;28;45331;-74
2022/05/15 02:41:30;;;;;;;;;5.00;5.00;;;;;17.94;45.92;100725.22;4962339;28;45310;-73
2022/05/15 02:43:56;;;;;;;;;4.00;4.00;;;;;17.94;46.03;100725.22;4962092;28;45409;-73
2022/05/15 02:46:21;;;;;;;;;4.00;4.00;;;;;17.87;45.80;100718.63;4961879;28;45311;-74
2022/05/15 02:51:30;;;;;;;;;6.25;5.25;;;;;17.91;46.24;100725.44;4962733;28;45318;-74
2022/05/15 02:53:56;;;;;;;;;3.00;3.00;;;;;17.91;45.70;100731.59;4961877;28;45379;-74
2022/05/15 02:56:26;;;;;;;;;4.00;3.50;;;;;17.89;45.97;100730.84;4962200;28;45276;-74
2022/05/15 02:58:52;;;;;;;;;5.00;3.50;;;;;17.87;45.80;100730.09;4961743;28;45352;-74
2022/05/15 03:01:17;;;;;;;;;5.00;5.00;;;;;17.89;45.78;100741.50;4961780;28;45261;-73
2022/05/15 03:03:43;;;;;;;;;5.75;4.25;;;;;17.88;45.98;100739.78;4962221;28;46292;-73
2022/05/15 03:06:10;;;;;;;;;4.00;4.00;;;;;17.88;45.86;100736.31;4962568;28;45341;-74
2022/05/15 03:08:41;;;;;;;;;4.00;4.00;;;;;17.88;45.65;100738.97;4962552;28;45270;-74
2022/05/15 03:11:08;;;;;;;;;5.75;5.75;;;;;17.87;45.66;100734.59;4963649;28;45520;-73
2022/05/15 03:13:35;;;;;;;;;3.00;3.00;;;;;17.88;45.67;100730.97;4961485;28;46099;-73
2022/05/15 03:16:01;;;;;;;;;5.00;5.00;;;;;17.85;45.76;100729.38;4958714;28;45286;-73
2022/05/15 03:18:26;;;;;;;;;5.75;4.00;;;;;17.83;45.85;100722.47;4958581;28;45314;-72
2022/05/15 03:20:52;;;;;;;;;3.25;3.25;;;;;17.82;45.68;100726.91;4941878;28;45469;-74
2022/05/15 03:23:18;;;;;;;;;3.75;3.75;;;;;17.80;45.79;100723.50;4958526;28;57953;-75
2022/05/15 03:25:43;;;;;;;;;6.25;5.00;;;;;17.66;46.11;100703.19;4959371;28;45236;-73
2022/05/15 03:28:11;;;;;;;;;7.00;5.25;;;;;17.73;46.20;100720.44;4958720;28;45240;-74
2022/05/15 03:30:42;;;;;;;;;6.00;6.00;;;;;17.70;46.97;100711.78;4959779;28;45446;-73
2022/05/15 03:33:09;;;;;;;;;10.50;10.50;;;;;17.65;47.32;100712.97;4942158;28;47156;-74
2022/05/15 03:35:38;;;;;;;;;7.25;7.25;;;;;17.56;47.13;100705.59;4957580;28;45275;-73
2022/05/15 03:38:06;;;;;;;;;10.75;7.75;;;;;17.52;47.18;100710.31;4957963;28;45236;-74
2022/05/15 03:40:32;;;;;;;;;10.25;7.00;;;;;17.45;47.39;100701.00;4958038;28;45394;-74
2022/05/15 03:42:58;;;;;;;;;6.00;5.25;;;;;17.46;47.77;100699.22;4957388;28;46123;-74
2022/05/15 03:45:24;;;;;;;;;6.50;5.00;;;;;17.41;47.37;100704.00;4957825;28;45255;-73
2022/05/15 03:47:52;;;;;;;;;5.50;5.50;;;;;17.37;47.50;100701.53;4958101;28;45318;-71
2022/05/15 03:50:20;;;;;;;;;7.50;5.00;;;;;17.29;47.50;100687.03;4957489;28;45335;-73
2022/05/15 03:52:46;;;;;;;;;7.25;7.25;;;;;17.33;47.26;100697.38;4961387;28;46144;-73
2022/05/15 03:55:12;;;;;;;;;8.00;5.00;;;;;17.10;47.58;100666.16;4957811;28;45287;-74
2022/05/15 03:57:38;;;;;;;;;5.50;5.50;;;;;17.30;47.63;100691.41;4957840;28;45307;-73
2022/05/15 04:00:06;;;;;;;;;6.50;5.25;;;;;17.27;47.35;100696.94;4959364;28;45500;-73
2022/05/15 04:02:32;;;;;;;;;10.50;10.50;;;;;17.03;47.21;100661.25;4959311;28;45695;-73
2022/05/15 04:04:57;;;;;;;;;7.00;7.00;;;;;17.21;47.51;100684.91;4957507;28;45824;-75
2022/05/15 04:07:22;;;;;;;;;5.00;5.00;;;;;17.18;47.32;100683.28;4958360;28;45364;-74
2022/05/15 04:09:49;;;;;;;;;5.00;3.50;;;;;17.14;47.66;100680.97;4957435;28;45756;-72
2022/05/15 04:12:15;;;;;;;;;3.25;3.25;;;;;17.12;47.62;100683.69;4960026;28;45540;-73
2022/05/15 04:14:40;;;;;;;;;4.75;4.75;;;;;17.08;47.96;100680.41;4959398;28;45315;-73
2022/05/15 04:17:06;;;;;;;;;6.00;5.00;;;;;17.05;47.75;100682.41;4957480;28;45315;-74
2022/05/15 04:19:34;;;;;;;;;5.00;5.00;;;;;16.99;47.80;100682.81;4957708;28;45558;-72
2022/05/15 04:22:02;;;;;;;;;4.00;4.00;;;;;17.04;48.03;100694.84;4957402;28;46096;-73
2022/05/15 04:24:28;;;;;;;;;4.00;4.00;;;;;17.04;47.51;100699.31;4956997;28;45233;-74
2022/05/15 04:26:54;;;;;;;;;5.00;5.00;;;;;16.99;47.77;100702.28;4956871;28;45508;-74
2022/05/15 04:29:19;;;;;;;;;5.00;5.00;;;;;16.99;47.99;100702.28;4957118;28;45469;-74
2022/05/15 04:31:44;;;;;;;;;6.00;4.50;;;;;17.02;48.50;100688.78;4958321;28;46366;-74
2022/05/15 04:34:11;;;;;;;;;6.00;4.25;;;;;16.97;48.36;100671.41;4959815;28;45447;-74
2022/05/15 04:36:36;;;;;;;;;4.75;4.75;;;;;17.05;48.37;100682.41;4957215;28;45403;-74
2022/05/15 04:39:04;;;;;;;;;5.50;4.00;;;;;17.03;48.31;100671.03;4956906;28;45328;-74
2022/05/15 04:41:30;;;;;;;;;6.25;5.00;;;;;17.04;48.01;100678.91;4957051;28;45270;-72
2022/05/15 04:43:55;;;;;;;;;8.50;5.75;;;;;17.03;47.93;100671.03;4956582;28;45174;-73
2022/05/15 04:46:22;;;;;;;;;3.75;3.75;;;;;17.00;48.25;100658.81;4956748;28;45282;-73
2022/05/15 04:48:47;;;;;;;;;5.25;5.25;;;;;17.01;48.01;100663.16;4957309;28;45306;-73
2022/05/15 04:51:13;;;;;;;;;5.00;5.00;;;;;17.10;48.09;100674.97;4958445;28;45404;-73
2022/05/15 04:53:38;;;;;;;;;5.25;5.25;;;;;17.12;48.03;100680.22;4955960;28;45422;-72
2022/05/15 04:56:03;;;;;;;;;6.75;5.25;;;;;17.17;48.19;100684.25;4959295;28;45307;-73
2022/05/15 04:58:29;;;;;;;;;5.25;4.00;;;;;17.18;47.88;100691.28;4957337;28;45373;-73
2022/05/15 05:00:54;;;;;;;;;5.00;5.00;;;;;17.20;47.83;100688.53;4957204;28;46530;-74
2022/05/15 05:03:20;;;;;;;;;4.75;4.75;;;;;17.22;47.63;100695.44;4957148;28;45419;-73
2022/05/15 05:05:45;;;;;;;;;9.50;5.00;;;;;17.27;47.79;100696.94;4957516;28;45850;-73
2022/05/15 05:08:12;;;;;;;;;5.00;5.00;;;;;17.33;47.94;100697.38;4958584;28;45596;-76
2022/05/15 05:10:38;;;;;;;;;6.00;5.50;;;;;17.42;47.88;100698.56;4958060;28;46554;-74
2022/05/15 05:13:04;;;;;;;;;7.75;6.00;;;;;17.58;47.82;100697.53;4955654;28;45448;-74
2022/05/15 05:15:30;;;;;;;;;5.00;5.00;;;;;17.77;47.34;100700.63;4957182;28;45320;-73
2022/05/15 05:17:56;;;;;;;;;4.00;4.00;;;;;17.94;47.01;100698.63;4957371;28;45236;-74
2022/05/15 05:20:22;;;;;;;;;5.25;5.00;;;;;18.08;46.64;100689.72;4957079;28;46234;-73
2022/05/15 05:22:48;;;;;;;;;6.00;6.00;;;;;18.30;46.66;100698.84;4956935;28;45209;-74
2022/05/15 05:25:15;;;;;;;;;5.25;5.25;;;;;18.42;46.16;100703.28;4957126;28;45523;-73
2022/05/15 05:27:42;;;;;;;;;7.00;6.75;;;;;18.61;46.03;100702.84;4956954;28;45295;-74
2022/05/15 05:30:11;;;;;;;;;5.25;5.00;;;;;18.75;45.31;100704.47;4955487;28;45302;-76
2022/05/15 05:32:36;;;;;;;;;5.50;5.50;;;;;18.88;45.98;100701.78;4957723;28;45259;-75
2022/05/15 05:35:03;;;;;;;;;8.00;5.00;;;;;19.00;45.34;100708.03;4958894;28;45449;-75
2022/05/15 05:37:30;;;;;;;;;5.00;5.00;;;;;19.02;45.33;100690.09;4960314;28;45324;-74
2022/05/15 05:39:56;;;;;;;;;10.00;7.50;;;;;19.13;44.78;100702.66;4955371;28;45441;-73
2022/05/15 05:42:21;;;;;;;;;5.75;5.75;;;;;19.15;44.67;100705.22;4956509;28;45485;-74
2022/05/15 05:44:47;;;;;;;;;5.75;5.75;;;;;19.11;44.19;100715.25;4956455;28;45420;-73
2022/05/15 05:47:12;;;;;;;;;4.00;4.00;;;;;19.06;44.11;100715.56;4956492;28;45808;-73
2022/05/15 05:49:38;;;;;;;;;5.00;5.00;;;;;19.01;44.68;100712.41;4955835;28;45322;-73
2022/05/15 05:52:03;;;;;;;;;7.00;5.25;;;;;18.97;44.38;100711.78;4956077;28;45188;-74
2022/05/15 05:54:29;;;;;;;;;8.50;7.50;;;;;18.88;44.50;100703.56;4957185;28;45193;-74
2022/05/15 05:56:54;;;;;;;;;5.00;5.00;;;;;18.89;44.40;100710.59;4958925;28;45449;-74
2022/05/15 05:59:20;;;;;;;;;9.50;9.50;;;;;18.87;44.79;100702.72;4957396;28;46083;-74
2022/05/15 06:01:45;;;;;;;;;7.00;5.00;;;;;18.82;44.83;100697.72;4956129;28;45318;-73
2022/05/15 06:06:54;;;;;;;;;5.00;5.00;;;;;18.82;44.33;100702.22;4956621;28;45259;-73
2022/05/15 06:09:19;;;;;;;;;5.00;4.00;;;;;18.81;44.49;100693.38;4956330;28;46176;-73
2022/05/15 06:11:45;;;;;;;;;5.25;5.25;;;;;18.79;44.84;100695.28;4955625;28;45240;-74
2022/05/15 06:14:10;;;;;;;;;5.00;5.00;;;;;18.70;44.61;100669.31;4955923;28;45237;-74
2022/05/15 06:16:35;;;;;;;;;8.25;4.50;;;;;18.80;44.32;100680.16;4956232;28;45476;-75
2022/05/15 06:19:01;;;;;;;;;5.00;5.00;;;;;18.87;44.70;100692.06;4939229;28;47020;-74
2022/05/15 06:21:26;;;;;;;;;19.00;17.25;;;;;18.83;44.34;100677.28;4956149;28;45379;-74
2022/05/15 06:23:52;;;;;;;;;7.50;5.50;;;;;18.97;44.39;100692.25;4955800;28;45224;-73
2022/05/15 06:26:17;;;;;;;;;7.00;5.00;;;;;19.01;44.08;100682.25;4956272;28;45583;-77
2022/05/15 06:28:43;;;;;;;;;5.25;5.25;;;;;19.09;43.99;100682.50;4938462;28;45868;-76
2022/05/15 06:31:08;;;;;;;;;4.00;4.00;;;;;19.22;43.66;100701.97;4956581;28;45371;-75
2022/05/15 06:33:34;;;;;;;;;6.75;5.00;;;;;19.13;43.73;100670.66;4957564;28;45393;-75
2022/05/15 06:35:59;;;;;;;;;4.75;4.75;;;;;19.34;43.82;100694.84;4959581;28;45465;-75
2022/05/15 06:38:25;;;;;;;;;6.00;4.25;;;;;19.43;43.63;100703.97;4959260;28;46084;-74
2022/05/15 06:40:51;;;;;;;;;5.25;5.25;;;;;19.48;42.92;100699.13;4958490;28;45412;-74
2022/05/15 06:43:16;;;;;;;;;6.25;6.25;;;;;19.51;43.57;100706.91;4956666;28;45310;-74
2022/05/15 06:45:42;;;;;;;;;4.00;4.00;;;;;19.50;43.34;100699.03;4955781;28;45442;-74
2022/05/15 06:48:08;;;;;;;;;5.75;5.00;;;;;19.55;42.96;100707.53;4955209;28;46263;-74
2022/05/15 06:50:35;;;;;;;;;7.50;5.75;;;;;19.24;43.30;100665.34;4957490;28;45273;-76
2022/05/15 06:53:00;;;;;;;;;4.25;3.00;;;;;19.44;43.28;100695.00;4958937;28;45248;-73
2022/05/15 06:55:26;;;;;;;;;4.25;4.25;;;;;19.55;43.39;100712.88;4959278;28;45501;-73
2022/05/15 06:57:51;;;;;;;;;6.00;6.00;;;;;19.61;43.42;100707.06;4959337;28;45482;-73
2022/05/15 07:00:22;;;;;;;;;6.25;4.50;;;;;19.60;43.54;100691.16;4959550;28;45312;-74
2022/05/15 07:02:48;;;;;;;;;7.00;7.00;;;;;19.77;43.27;100713.88;4959707;28;45303;-73
2022/05/15 07:05:24;;;;;;;;;5.00;5.00;;;;;19.80;42.93;100708.31;4941148;28;45255;-74
2022/05/15 07:07:52;;;;;;;;;5.25;5.00;;;;;19.83;43.05;100692.91;4958091;28;45332;-74
2022/05/15 07:10:18;;;;;;;;;5.75;5.50;;;;;19.94;42.92;100691.25;4958156;28;45371;-74
2022/05/15 07:12:44;;;;;;;;;5.25;5.25;;;;;19.98;42.58;100688.22;4958966;28;45410;-73
2022/05/15 07:15:09;;;;;;;;;6.00;6.00;;;;;20.06;43.06;100682.28;4958758;28;45362;-74
2022/05/15 07:17:36;;;;;;;;;4.00;4.00;;;;;20.03;42.46;100662.97;4940919;28;46225;-73
2022/05/15 07:20:03;;;;;;;;;4.50;4.50;;;;;20.26;42.73;100680.72;4958738;28;45308;-74
2022/05/15 07:22:29;;;;;;;;;4.00;4.00;;;;;20.41;42.78;100672.44;4958469;28;45179;-73
2022/05/15 07:24:54;;;;;;;;;5.50;4.75;;;;;20.63;42.08;100679.53;4958462;28;45242;-73
2022/05/15 07:27:20;;;;;;;;;5.00;5.00;;;;;20.80;42.13;100682.72;4958236;28;46239;-75
2022/05/15 07:29:45;;;;;;;;;3.00;3.00;;;;;20.97;41.93;100673.28;4939913;28;45342;-75
2022/05/15 07:32:11;;;;;;;;;3.75;3.75;;;;;21.23;41.17;100664.94;4958061;28;45262;-74
2022/05/15 07:34:41;;;;;;;;;5.50;5.50;;;;;21.36;40.83;100646.00;4958265;28;45397;-75
2022/05/15 07:37:07;;;;;;;;;6.50;4.50;;;;;21.67;40.41;100654.97;4957697;28;46090;-73
2022/05/15 07:39:32;;;;;;;;;4.25;4.25;;;;;21.85;39.32;100638.28;4957583;28;45322;-74
2022/05/15 07:41:58;;;;;;;;;4.25;3.25;;;;;22.04;39.47;100643.72;4940639;28;45350;-74
2022/05/15 07:44:24;;;;;;;;;4.50;4.50;;;;;22.25;39.48;100648.16;4958820;28;45433;-73
2022/05/15 07:46:49;;;;;;;;;4.00;4.00;;;;;22.31;39.15;100617.28;4942054;28;46172;-74
2022/05/15 07:49:15;;;;;;;;;5.25;2.25;;;;;22.67;38.23;100646.31;4957509;28;45271;-74
2022/05/15 07:51:44;;;;;;;;;4.75;4.75;;;;;22.70;38.20;100640.69;4958030;28;45343;-74
2022/05/15 07:54:12;;;;;;;;;6.00;3.50;;;;;22.86;38.22;100642.81;4956183;28;45612;-74
2022/05/15 07:56:37;;;;;;;;;3.50;3.00;;;;;22.92;38.10;100644.94;4939841;28;46890;-74
2022/05/15 07:59:02;;;;;;;;;6.00;5.75;;;;;22.97;38.04;100636.44;4957205;28;45376;-75
2022/05/15 08:01:29;;;;;;;;;3.00;3.00;;;;;22.97;37.42;100633.75;4956934;28;45446;-75
2022/05/15 08:03:54;;;;;;;;;4.00;3.00;;;;;22.97;37.70;100633.75;4959436;28;45189;-74
2022/05/15 08:09:06;;;;;;;;;4.00;3.00;;;;;22.92;37.56;100634.22;4957047;28;45324;-75
2022/05/15 08:11:32;;;;;;;;;4.25;4.25;;;;;22.88;37.59;100630.94;4958711;28;45248;-73
2022/05/15 08:14:02;;;;;;;;;4.00;4.00;;;;;22.91;37.70;100625.28;4958506;28;45335;-74
2022/05/15 08:16:28;;;;;;;;;7.00;6.00;;;;;22.97;37.40;100617.66;4955888;28;47514;-74
2022/05/15 08:24:23;;;;;;;;;4.75;3.00;;;;;23.25;37.52;100597.19;4957696;28;45410;-74
2022/05/15 08:26:48;;;;;;;;;2.75;2.75;;;;;23.29;37.22;100587.00;4940040;28;47302;-73
2022/05/15 08:29:14;;;;;;;;;3.25;3.25;;;;;23.35;36.41;100581.09;4957832;28;45403;-74
2022/05/15 08:31:40;;;;;;;;;4.00;4.00;;;;;23.49;36.46;100595.88;4958347;28;45719;-74
2022/05/15 08:34:07;;;;;;;;;5.25;4.00;;;;;23.57;36.28;100595.16;4957580;28;45203;-74
2022/05/15 08:36:33;;;;;;;;;3.75;3.75;;;;;23.71;36.42;100602.72;4957210;28;45457;-75
2022/05/15 08:38:58;;;;;;;;;3.75;3.75;;;;;23.68;36.16;100568.13;4957447;28;45769;-75
2022/05/15 08:41:30;;;;;;;;;6.00;4.00;;;;;23.88;36.31;100593.06;4957700;28;45364;-74
2022/05/15 08:44:07;;;;;;;;;2.25;2.00;;;;;23.97;35.29;100590.47;4958563;28;45386;-74
2022/05/15 08:46:50;;;;;;;;;6.00;5.00;;;;;24.13;35.54;100588.00;4957945;28;46665;-74
2022/05/15 08:49:30;;;;;;;;;2.25;2.25;;;;;24.29;34.72;100583.81;4956695;28;45179;-76
2022/05/15 08:52:19;;;;;;;;;2.50;2.50;;;;;24.19;35.02;100552.47;4956951;28;45374;-74
2022/05/15 08:54:54;;;;;;;;;4.00;2.50;;;;;24.46;33.91;100582.97;4955319;28;45392;-73
2022/05/15 08:57:43;;;;;;;;;3.25;3.25;;;;;24.55;34.71;100583.91;4956274;28;45709;-74
2022/05/15 09:00:12;;;;;;;;;7.00;3.00;;;;;24.57;34.29;100576.53;4956045;28;45228;-74
2022/05/15 09:02:40;;;;;;;;;6.00;6.00;;;;;24.71;33.91;100580.50;4958078;28;45402;-75
2022/05/15 09:05:07;;;;;;;;;4.00;4.00;;;;;24.83;33.97;100580.28;4958459;28;45152;-74
2022/05/15 09:07:43;;;;;;;;;7.00;5.25;;;;;24.87;34.42;100576.28;4956383;28;45253;-73
2022/05/15 09:10:19;;;;;;;;;7.75;5.00;;;;;24.91;33.59;100580.34;4957272;28;45254;-75
2022/05/15 09:12:56;;;;;;;;;4.00;4.00;;;;;24.87;33.90;100576.28;4957107;28;45411;-74
2022/05/15 09:15:27;;;;;;;;;4.00;4.00;;;;;24.94;33.68;100580.91;4942566;28;45247;-74
2022/05/15 09:17:58;;;;;;;;;5.50;5.50;;;;;25.07;34.08;100587.72;4956203;28;46883;-73
2022/05/15 09:20:27;;;;;;;;;10.25;10.00;;;;;25.10;33.48;100582.03;4956311;28;45221;-75
2022/05/15 09:23:04;;;;;;;;;6.75;5.00;;;;;25.20;33.65;100582.78;4958658;28;45371;-75
2022/05/15 09:25:34;;;;;;;;;3.00;3.00;;;;;25.35;32.79;100571.41;4956884;28;45298;-74
2022/05/15 09:28:02;;;;;;;;;3.00;3.00;;;;;25.52;33.37;100573.25;4956258;28;46107;-75
2022/05/15 09:30:38;;;;;;;;;4.00;4.00;;;;;25.62;33.13;100558.81;4954855;28;45332;-74
2022/05/15 09:33:04;;;;;;;;;3.75;3.75;;;;;25.80;32.65;100570.34;4956473;28;45213;-75
2022/05/15 09:35:36;;;;;;;;;5.00;3.00;;;;;25.96;32.96;100557.94;4956653;28;45300;-75
2022/05/15 09:43:51;;;;;;;;;5.25;4.00;;;;;26.26;31.66;100553.00;4955592;28;45314;-75
2022/05/15 09:46:19;;;;;;;;;6.75;3.75;;;;;26.19;30.38;100538.50;4958114;28;45372;-75
2022/05/15 09:48:56;;;;;;;;;3.00;3.00;;;;;26.31;30.65;100547.94;4956480;28;46225;-74
2022/05/15 09:51:50;;;;;;;;;2.25;2.25;;;;;26.37;30.65;100546.44;4956021;28;45367;-75
2022/05/15 09:54:31;;;;;;;;;3.00;3.00;;;;;26.47;29.95;100557.06;4950255;28;45311;-75
2022/05/15 09:57:14;;;;;;;;;2.25;2.00;;;;;26.44;29.59;100550.16;4938827;28;45558;-76
2022/05/15 09:59:40;;;;;;;;;2.75;2.75;;;;;26.43;29.82;100544.91;4956869;28;45763;-75
2022/05/15 10:02:18;;;;;;;;;3.00;3.00;;;;;26.46;30.29;100544.59;4939222;28;46098;-76
2022/05/15 10:04:48;;;;;;;;;4.50;4.50;;;;;26.48;29.65;100539.88;4956405;28;45380;-74
2022/05/15 10:07:36;;;;;;;;;3.25;3.25;;;;;26.46;29.22;100514.94;4957808;28;45377;-74
2022/05/15 10:10:35;;;;;;;;;3.75;2.25;;;;;26.71;29.37;100525.75;4954861;28;47580;-72
2022/05/15 10:13:13;;;;;;;;;2.00;2.00;;;;;26.78;29.20;100510.56;4955548;28;45275;-73
2022/05/15 10:15:42;;;;;;;;;2.00;2.00;;;;;26.97;28.95;100515.63;4955668;28;45445;-75
2022/05/15 10:18:13;;;;;;;;;5.25;3.50;;;;;27.10;28.78;100517.81;4956243;28;45296;-74
2022/05/15 10:20:40;;;;;;;;;2.50;2.00;;;;;27.16;28.87;100516.25;4956975;28;45432;-74
2022/05/15 10:23:22;;;;;;;;;5.75;3.25;;;;;27.25;28.64;100506.28;4938147;28;45438;-74
2022/05/15 10:25:48;;;;;;;;;3.50;2.00;;;;;27.29;28.65;100501.38;4940206;28;45392;-75
2022/05/15 10:28:32;;;;;;;;;4.75;2.25;;;;;27.30;28.57;100505.75;4959279;28;45432;-74
2022/05/15 10:31:15;;;;;;;;;4.00;4.00;;;;;27.37;28.34;100498.63;4959221;28;45896;-74
2022/05/15 10:33:43;;;;;;;;;2.50;2.50;;;;;27.32;28.34;100496.47;4958658;28;45416;-74
2022/05/15 10:36:17;;;;;;;;;2.50;2.50;;;;;27.29;29.14;100496.81;4958134;28;45337;-74
2022/05/15 10:39:21;;;;;;;;;4.00;4.00;;;;;27.36;28.97;100499.66;4957647;28;45572;-73
2022/05/15 10:42:15;;;;;;;;;4.00;4.00;;;;;27.33;28.48;100497.28;4942097;28;47112;-75
2022/05/15 10:45:25;;;;;;;;;5.25;5.25;;;;;27.15;29.03;100500.25;4958816;28;45387;-73
2022/05/15 10:48:24;;;;;;;;;4.75;4.75;;;;;27.04;29.34;100490.63;4943591;28;45544;-74
2022/05/15 10:51:03;;;;;;;;;5.50;2.50;;;;;26.93;28.95;100481.91;4941231;28;45735;-75
2022/05/15 11:00:17;;;;;;;;;6.25;4.75;;;;;27.21;29.18;100478.78;4958553;28;45273;-73
2022/05/15 11:02:51;;;;;;;;;2.75;2.75;;;;;27.29;27.92;100474.38;4956983;28;45403;-74
2022/05/15 11:05:23;;;;;;;;;2.25;2.00;;;;;27.40;28.43;100469.44;4958122;28;45639;-74
2022/05/15 11:08:07;;;;;;;;;4.00;3.00;;;;;27.54;27.45;100470.56;4958237;28;45577;-74
2022/05/15 11:10:51;;;;;;;;;4.75;4.75;;;;;27.64;27.83;100469.53;4958439;28;45285;-74
2022/05/15 11:13:21;;;;;;;;;6.00;5.25;;;;;27.70;27.19;100476.94;4958577;28;45176;-74
2022/05/15 11:15:49;;;;;;;;;6.50;5.00;;;;;27.79;27.71;100462.34;4957762;28;47236;-73
2022/05/15 11:18:42;;;;;;;;;7.00;6.00;;;;;27.99;27.80;100467.28;4958262;28;45316;-74
2022/05/15 11:21:19;;;;;;;;;2.75;1.25;;;;;28.16;26.60;100449.13;4959486;28;45300;-74
2022/05/15 11:23:57;;;;;;;;;3.00;3.00;;;;;28.32;26.42;100445.44;4959049;28;45349;-76
2022/05/15 11:26:42;;;;;;;;;5.00;3.75;;;;;28.43;26.95;100449.59;4958691;28;45263;-73
2022/05/15 11:29:12;;;;;;;;;3.50;3.00;;;;;28.55;25.90;100441.84;4959256;28;45198;-74
2022/05/15 11:31:45;;;;;;;;;6.00;4.25;;;;;28.61;26.24;100437.56;4959320;28;45348;-74
2022/05/15 11:34:10;;;;;;;;;1.75;1.75;;;;;28.76;25.62;100443.03;4958423;28;45342;-74
2022/05/15 11:36:42;;;;;;;;;4.50;2.25;;;;;28.85;25.89;100441.94;4957399;28;45985;-75
2022/05/15 11:39:13;;;;;;;;;4.00;2.00;;;;;28.97;25.17;100450.41;4958559;28;45253;-73
2022/05/15 11:41:39;;;;;;;;;3.25;3.25;;;;;29.09;25.47;100440.78;4958233;28;45358;-74
2022/05/15 11:44:18;;;;;;;;;2.50;2.50;;;;;29.21;25.07;100435.75;4957948;28;45303;-74
2022/05/15 11:46:47;;;;;;;;;3.50;3.50;;;;;29.30;25.10;100423.78;4940467;28;47310;-75
2022/05/15 11:49:39;;;;;;;;;4.00;4.00;;;;;29.34;25.00;100429.69;4959405;28;45393;-74
2022/05/15 11:52:05;;;;;;;;;3.00;3.00;;;;;29.36;24.88;100435.75;4952595;28;45425;-74
2022/05/15 11:54:36;;;;;;;;;5.25;3.75;;;;;29.40;24.32;100422.69;4958117;28;45456;-73
2022/05/15 11:57:03;;;;;;;;;3.25;3.25;;;;;29.28;24.75;100417.72;4958046;28;46498;-73
2022/05/15 11:59:33;;;;;;;;;3.25;1.50;;;;;29.30;24.52;100422.97;4956398;28;45276;-75